createdAt,value
2019-01-31T03:41:10.507Z,100625.03
2019-01-31T03:56:08.950Z,100626.83
2019-01-31T03:58:44.713Z,100621.94
2019-01-31T04:01:15.661Z,100627.67
2019-01-31T04:04:15.937Z,100628.23
2019-01-31T04:09:35.068Z,100626.60
2019-01-31T04:12:10.367Z,100628.29
2019-01-31T04:14:55.795Z,100618.89
2019-01-31T04:17:31.480Z,100624.91
2019-01-31T04:20:01.697Z,100624.81
2019-01-31T04:25:27.686Z,100623.31
2019-01-31T04:28:05.817Z,100620.95
2019-01-31T04:30:35.357Z,100624.04
2019-01-31T04:35:59.199Z,100629.77
2019-01-31T04:38:28.721Z,100625.53
2019-01-31T04:40:58.278Z,100627.55
2019-01-31T04:43:27.578Z,100626.03
2019-01-31T04:45:57.542Z,100627.78
2019-01-31T04:48:29.050Z,100625.21
2019-01-31T04:50:58.582Z,100625.32
2019-01-31T04:53:27.587Z,100622.34
2019-01-31T04:55:56.894Z,100615.06
2019-01-31T04:58:26.104Z,100611.21
2019-01-31T05:00:55.334Z,100618.38
2019-01-31T05:03:24.666Z,100610.84
2019-01-31T05:05:54.425Z,100611.83
2019-01-31T05:08:23.418Z,100608.89
2019-01-31T05:10:52.527Z,100613.18
2019-01-31T05:13:23.157Z,100607.16
2019-01-31T05:15:52.145Z,100613.60
2019-01-31T05:18:21.227Z,100615.06
2019-01-31T05:20:50.321Z,100620.03
2019-01-31T05:23:19.389Z,100620.42
2019-01-31T05:25:48.443Z,100615.97
2019-01-31T05:28:17.674Z,100618.39
2019-01-31T05:30:46.606Z,100613.12
2019-01-31T05:33:15.666Z,100615.34
2019-01-31T05:35:44.756Z,100618.12
2019-01-31T05:38:13.835Z,100612.09
2019-01-31T05:40:54.800Z,100612.41
2019-01-31T05:43:11.973Z,100616.36
2019-01-31T05:45:41.037Z,100613.31
2019-01-31T05:48:10.094Z,100617.17
2019-01-31T05:50:39.206Z,100611.09
2019-01-31T05:53:08.269Z,100614.92
2019-01-31T05:55:37.339Z,100605.62
2019-01-31T05:58:06.423Z,100604.75
2019-01-31T06:00:35.494Z,100603.92
2019-01-31T06:03:04.550Z,100606.59
2019-01-31T06:05:33.633Z,100606.05
2019-01-31T06:08:02.689Z,100608.66
2019-01-31T06:10:33.493Z,100608.55
2019-01-31T06:13:00.847Z,100610.58
2019-01-31T06:15:29.917Z,100610.55
2019-01-31T06:17:58.978Z,100605.51
2019-01-31T06:20:28.069Z,100612.19
2019-01-31T06:22:57.135Z,100614.12
2019-01-31T06:25:26.201Z,100610.00
2019-01-31T06:27:55.292Z,100614.61
2019-01-31T06:30:24.350Z,100626.98
2019-01-31T06:32:53.412Z,100620.64
2019-01-31T06:35:22.515Z,100619.25
2019-01-31T06:37:51.566Z,100620.11
2019-01-31T06:40:20.944Z,100623.41
2019-01-31T06:42:49.970Z,100630.14
2019-01-31T06:45:19.034Z,100630.57
2019-01-31T06:47:48.103Z,100630.28
2019-01-31T06:50:17.194Z,100639.40
2019-01-31T06:52:46.251Z,100637.11
2019-01-31T06:55:15.310Z,100634.94
2019-01-31T06:57:44.451Z,100645.05
2019-01-31T07:00:14.327Z,100639.18
2019-01-31T07:02:43.382Z,100639.91
2019-01-31T07:05:12.462Z,100638.97
2019-01-31T07:07:41.532Z,100646.77
2019-01-31T07:10:10.599Z,100642.33
2019-01-31T07:12:39.690Z,100644.54
2019-01-31T07:15:08.751Z,100645.64
2019-01-31T07:17:37.803Z,100643.47
2019-01-31T07:20:06.971Z,100643.53
2019-01-31T07:22:36.031Z,100651.72
2019-01-31T07:25:05.121Z,100652.80
2019-01-31T07:27:34.211Z,100652.05
2019-01-31T07:30:03.277Z,100651.55
2019-01-31T07:32:32.322Z,100653.46
2019-01-31T07:35:01.411Z,100648.58
2019-01-31T07:37:30.475Z,100654.93
2019-01-31T07:39:59.537Z,100651.53
2019-01-31T07:42:28.652Z,100652.36
2019-01-31T07:44:57.716Z,100654.80
2019-01-31T07:47:26.784Z,100654.17
2019-01-31T07:49:55.863Z,100656.77
2019-01-31T07:52:24.935Z,100658.95
2019-01-31T07:54:54.001Z,100657.30
2019-01-31T07:57:23.168Z,100661.64
2019-01-31T07:59:52.145Z,100664.73
2019-01-31T08:02:21.218Z,100661.63
2019-01-31T08:04:50.365Z,100657.13
2019-01-31T08:07:19.430Z,100659.41
2019-01-31T08:09:48.505Z,100664.30
2019-01-31T08:12:17.584Z,100665.73
2019-01-31T08:14:46.650Z,100667.95
2019-01-31T08:17:15.721Z,100664.34
2019-01-31T08:19:44.815Z,100670.24
2019-01-31T08:22:13.875Z,100678.22
2019-01-31T08:24:42.937Z,100676.66
2019-01-31T08:27:12.968Z,100675.77
2019-01-31T08:29:42.030Z,100673.81
2019-01-31T08:32:11.131Z,100674.62
2019-01-31T08:34:40.201Z,100674.94
2019-01-31T08:37:09.269Z,100672.65
2019-01-31T08:39:38.375Z,100683.44
2019-01-31T08:42:07.428Z,100676.65
2019-01-31T08:44:36.499Z,100682.20
2019-01-31T08:47:05.572Z,100686.59
2019-01-31T08:49:34.696Z,100684.14
2019-01-31T08:52:03.761Z,100686.39
2019-01-31T08:54:32.827Z,100684.81
2019-01-31T08:57:01.918Z,100689.30
2019-01-31T08:59:30.984Z,100692.23
2019-01-31T09:02:00.059Z,100688.77
2019-01-31T09:04:29.140Z,100690.27
2019-01-31T09:06:58.194Z,100690.20
2019-01-31T09:09:27.265Z,100694.53
2019-01-31T09:11:56.368Z,100693.94
2019-01-31T09:14:25.445Z,100694.97
2019-01-31T09:16:54.512Z,100696.95
2019-01-31T09:19:23.590Z,100699.91
2019-01-31T09:21:52.657Z,100698.83
2019-01-31T09:24:22.641Z,100703.23
2019-01-31T09:26:59.579Z,100701.45
2019-01-31T09:29:28.640Z,100696.75
2019-01-31T09:32:03.442Z,100699.27
2019-01-31T09:34:41.062Z,100702.75
2019-01-31T09:37:25.827Z,100697.92
2019-01-31T09:39:55.717Z,100695.29
2019-01-31T09:42:29.599Z,100697.09
2019-01-31T09:45:00.342Z,100699.41
2019-01-31T09:47:33.764Z,100699.23
2019-01-31T09:50:08.331Z,100696.28
2019-01-31T09:52:54.524Z,100690.48
2019-01-31T09:55:22.615Z,100688.14
2019-01-31T09:57:53.467Z,100688.42
2019-01-31T10:00:27.505Z,100686.09
2019-01-31T10:03:00.117Z,100677.44
2019-01-31T10:05:44.572Z,100671.93
2019-01-31T10:08:15.131Z,100665.81
2019-01-31T10:11:00.541Z,100664.47
2019-01-31T10:13:35.192Z,100657.99
2019-01-31T10:16:11.255Z,100666.56
2019-01-31T10:18:47.039Z,100661.89
2019-01-31T10:21:17.747Z,100664.86
2019-01-31T10:23:52.486Z,100667.40
2019-01-31T10:26:24.127Z,100663.14
2019-01-31T10:28:58.748Z,100659.89
2019-01-31T10:31:35.443Z,100663.28
2019-01-31T10:34:04.501Z,100658.43
2019-01-31T10:36:35.227Z,100657.04
2019-01-31T10:39:08.867Z,100657.04
2019-01-31T10:41:44.804Z,100657.97
2019-01-31T10:44:32.888Z,100650.31
2019-01-31T10:47:05.601Z,100641.33
2019-01-31T10:49:41.253Z,100650.25
2019-01-31T10:52:13.258Z,100646.17
2019-01-31T10:54:42.342Z,100646.72
2019-01-31T10:57:16.946Z,100645.18
2019-01-31T10:59:46.970Z,100642.91
2019-01-31T11:02:20.617Z,100646.35
2019-01-31T11:05:05.584Z,100634.19
2019-01-31T11:07:42.318Z,100635.62
2019-01-31T11:10:13.372Z,100628.48
2019-01-31T11:12:59.881Z,100630.55
2019-01-31T11:15:22.760Z,100639.84
2019-01-31T11:17:53.736Z,100635.53
2019-01-31T11:20:27.386Z,100633.61
2019-01-31T11:23:11.900Z,100636.59
2019-01-31T11:25:44.076Z,100638.02
2019-01-31T11:28:14.742Z,100640.67
2019-01-31T11:30:46.605Z,100635.56
2019-01-31T11:33:36.154Z,100645.18
2019-01-31T11:38:56.402Z,100646.25
2019-01-31T11:41:32.305Z,100643.07
2019-01-31T11:44:18.642Z,100638.07
2019-01-31T11:46:47.737Z,100646.07
2019-01-31T11:49:32.900Z,100644.38
2019-01-31T11:52:17.570Z,100648.11
2019-01-31T11:54:55.495Z,100642.52
2019-01-31T11:57:32.186Z,100636.27
2019-01-31T12:00:01.242Z,100630.16
2019-01-31T12:02:30.309Z,100630.52
2019-01-31T12:04:59.393Z,100632.19
2019-01-31T12:07:28.448Z,100633.77
2019-01-31T12:09:57.504Z,100630.23
2019-01-31T12:12:26.882Z,100637.58
2019-01-31T12:14:55.947Z,100631.34
2019-01-31T12:17:25.003Z,100641.66
2019-01-31T12:19:54.079Z,100637.98
2019-01-31T12:22:23.150Z,100636.26
2019-01-31T12:24:52.212Z,100634.06
2019-01-31T12:27:21.294Z,100634.08
2019-01-31T12:29:50.364Z,100634.72
2019-01-31T12:32:19.421Z,100631.91
2019-01-31T12:34:48.611Z,100632.65
2019-01-31T12:37:17.741Z,100632.72
2019-01-31T12:39:46.782Z,100636.75
2019-01-31T12:42:15.863Z,100634.63
2019-01-31T12:44:44.970Z,100630.26
2019-01-31T12:47:14.023Z,100633.20
2019-01-31T12:49:43.118Z,100628.84
2019-01-31T12:52:12.178Z,100625.20
2019-01-31T12:54:41.256Z,100627.11
2019-01-31T12:57:10.366Z,100624.75
2019-01-31T12:59:39.442Z,100621.14
2019-01-31T13:02:08.498Z,100635.67
2019-01-31T13:04:37.592Z,100625.22
2019-01-31T13:07:06.653Z,100619.22
2019-01-31T13:09:35.719Z,100625.16
2019-01-31T13:12:04.815Z,100623.22
2019-01-31T13:14:33.911Z,100611.39
2019-01-31T13:17:02.995Z,100613.81
2019-01-31T13:19:32.123Z,100616.79
2019-01-31T13:22:01.183Z,100617.22
2019-01-31T13:24:30.250Z,100613.45
2019-01-31T13:26:59.336Z,100595.49
2019-01-31T13:29:28.816Z,100597.63
2019-01-31T13:31:57.843Z,100596.82
2019-01-31T13:34:26.935Z,100600.01
2019-01-31T13:36:57.914Z,100595.16
2019-01-31T13:39:26.982Z,100598.98
2019-01-31T13:41:56.092Z,100606.70
2019-01-31T13:44:25.152Z,100612.66
2019-01-31T13:46:54.217Z,100610.47
2019-01-31T13:49:23.303Z,100619.84
2019-01-31T13:51:52.365Z,100619.30
2019-01-31T13:54:21.440Z,100608.59
2019-01-31T13:56:50.557Z,100614.80
2019-01-31T13:59:19.631Z,100599.04
2019-01-31T14:01:48.703Z,100591.88
2019-01-31T14:04:17.865Z,100593.70
2019-01-31T14:06:46.935Z,100594.86
2019-01-31T14:09:15.988Z,100595.06
2019-01-31T14:11:45.091Z,100592.82
2019-01-31T14:14:14.148Z,100600.30
2019-01-31T14:16:47.811Z,100619.52
2019-01-31T14:19:12.308Z,100622.17
2019-01-31T14:21:43.993Z,100615.36
2019-01-31T14:24:10.421Z,100616.79
2019-01-31T14:26:39.609Z,100620.82
2019-01-31T14:29:08.675Z,100623.98
2019-01-31T14:31:37.752Z,100626.84
2019-01-31T14:34:12.463Z,100616.31
2019-01-31T14:36:46.457Z,100615.93
2019-01-31T14:39:15.431Z,100613.53
2019-01-31T14:41:44.501Z,100611.30
2019-01-31T14:44:20.227Z,100608.99
2019-01-31T14:46:43.286Z,100610.17
2019-01-31T14:49:12.238Z,100617.54
2019-01-31T14:51:41.287Z,100613.48
2019-01-31T14:54:10.382Z,100617.78
2019-01-31T14:56:39.467Z,100619.39
2019-01-31T14:59:08.538Z,100618.35
2019-01-31T15:01:37.634Z,100617.68
2019-01-31T15:04:06.697Z,100615.81
2019-01-31T15:06:35.766Z,100623.05
2019-01-31T15:09:04.878Z,100616.59
2019-01-31T15:11:33.942Z,100622.05
2019-01-31T15:14:03.091Z,100619.46
2019-01-31T15:16:32.101Z,100624.07
2019-01-31T15:19:01.179Z,100621.08
2019-01-31T15:21:30.239Z,100621.61
2019-01-31T15:23:59.743Z,100614.25
2019-01-31T15:26:29.088Z,100621.89
2019-01-31T15:28:58.437Z,100618.19
2019-01-31T15:31:27.663Z,100618.41
2019-01-31T15:33:56.751Z,100622.07
2019-01-31T15:36:25.823Z,100615.66
2019-01-31T15:38:54.926Z,100609.87
2019-01-31T15:41:23.994Z,100617.49
2019-01-31T15:43:53.068Z,100618.98
2019-01-31T15:46:22.162Z,100621.37
2019-01-31T15:48:51.242Z,100633.94
2019-01-31T15:51:20.347Z,100635.27
2019-01-31T15:53:49.699Z,100630.31
2019-01-31T15:56:18.785Z,100634.89
2019-01-31T15:58:47.843Z,100648.20
2019-01-31T16:01:16.948Z,100647.34
2019-01-31T16:03:46.016Z,100647.42
2019-01-31T16:06:15.095Z,100642.95
2019-01-31T16:08:44.201Z,100654.25
2019-01-31T16:11:13.278Z,100654.43
2019-01-31T16:13:42.379Z,100659.32
2019-01-31T16:16:11.539Z,100662.47
2019-01-31T16:18:40.538Z,100657.65
2019-01-31T16:21:09.609Z,100651.48
2019-01-31T16:23:38.711Z,100649.20
2019-01-31T16:26:07.795Z,100657.72
2019-01-31T16:28:36.881Z,100652.16
2019-01-31T16:31:06.617Z,100643.75
2019-01-31T16:33:35.625Z,100644.45
2019-01-31T16:36:04.727Z,100646.02
2019-01-31T16:38:33.924Z,100645.11
2019-01-31T16:41:02.979Z,100650.25
2019-01-31T16:43:32.056Z,100643.30
2019-01-31T16:46:01.190Z,100645.36
2019-01-31T16:48:30.270Z,100634.18
2019-01-31T16:50:59.347Z,100645.05
2019-01-31T16:53:28.457Z,100643.08
2019-01-31T16:55:57.543Z,100642.27
2019-01-31T16:58:26.631Z,100636.73
2019-01-31T17:00:55.762Z,100639.73
2019-01-31T17:03:24.831Z,100630.02
2019-01-31T17:05:53.926Z,100639.86
2019-01-31T17:08:23.019Z,100630.41
2019-01-31T17:10:52.103Z,100632.77
2019-01-31T17:13:21.168Z,100641.64
2019-01-31T17:15:50.272Z,100638.17
2019-01-31T17:18:19.344Z,100646.24
2019-01-31T17:20:48.407Z,100638.73
2019-01-31T17:23:17.528Z,100643.34
2019-01-31T17:25:46.593Z,100640.24
2019-01-31T17:28:15.673Z,100638.37
2019-01-31T17:30:44.780Z,100643.38
2019-01-31T17:33:13.831Z,100643.32
2019-01-31T17:35:42.895Z,100647.76
2019-01-31T17:38:11.984Z,100641.73
2019-01-31T17:40:41.069Z,100633.28
2019-01-31T17:43:10.133Z,100636.91
2019-01-31T17:45:39.256Z,100629.52
2019-01-31T17:48:08.356Z,100632.98
2019-01-31T17:50:37.424Z,100637.01
2019-01-31T17:53:06.514Z,100631.27
2019-01-31T17:55:35.575Z,100640.41
2019-01-31T17:58:04.646Z,100640.50
2019-01-31T18:00:33.740Z,100633.95
2019-01-31T18:03:02.804Z,100632.12
2019-01-31T18:05:31.877Z,100633.77
2019-01-31T18:08:00.983Z,100629.19
2019-01-31T18:10:30.051Z,100629.64
2019-01-31T18:12:59.127Z,100635.19
2019-01-31T18:15:28.210Z,100630.47
2019-01-31T18:17:57.268Z,100632.81
2019-01-31T18:20:26.332Z,100636.70
2019-01-31T18:22:55.423Z,100633.17
2019-01-31T18:25:24.487Z,100634.20
2019-01-31T18:27:53.579Z,100633.34
2019-01-31T18:30:22.790Z,100633.72
2019-01-31T18:32:52.757Z,100631.65
2019-01-31T18:35:21.827Z,100631.40
2019-01-31T18:37:50.919Z,100631.14
2019-01-31T18:40:22.500Z,100631.78
2019-01-31T18:42:51.580Z,100633.02
2019-01-31T18:45:20.675Z,100631.88
2019-01-31T18:47:49.763Z,100635.23
2019-01-31T18:50:19.777Z,100633.71
2019-01-31T18:52:48.913Z,100631.17
2019-01-31T18:55:17.989Z,100634.76
2019-01-31T18:57:47.061Z,100631.58
2019-01-31T19:00:17.002Z,100620.66
2019-01-31T19:02:46.071Z,100625.05
2019-01-31T19:05:15.141Z,100626.97
2019-01-31T19:07:44.236Z,100626.06
2019-01-31T19:10:13.308Z,100629.84
2019-01-31T19:12:42.366Z,100629.66
2019-01-31T19:15:15.313Z,100629.69
2019-01-31T19:17:45.384Z,100623.30
2019-01-31T19:20:14.436Z,100630.34
2019-01-31T19:22:43.530Z,100623.72
2019-01-31T19:25:12.982Z,100617.52
2019-01-31T19:27:42.057Z,100616.50
2019-01-31T19:30:11.143Z,100614.03
2019-01-31T19:32:40.206Z,100619.41
2019-01-31T19:35:09.272Z,100613.91
2019-01-31T19:37:38.356Z,100617.66
2019-01-31T19:40:07.436Z,100617.05
2019-01-31T19:42:36.486Z,100614.91
2019-01-31T19:45:14.792Z,100611.58
2019-01-31T19:47:43.858Z,100607.61
2019-01-31T19:50:12.990Z,100609.19
2019-01-31T19:52:42.054Z,100604.98
2019-01-31T19:55:11.128Z,100603.09
2019-01-31T19:57:40.303Z,100601.79
2019-01-31T20:00:10.330Z,100600.70
2019-01-31T20:02:39.401Z,100600.31
2019-01-31T20:05:08.487Z,100594.65
2019-01-31T20:07:37.553Z,100591.69
2019-01-31T20:10:06.619Z,100592.05
2019-01-31T20:12:35.726Z,100597.16
2019-01-31T20:15:04.794Z,100600.19
2019-01-31T20:17:33.862Z,100599.42
2019-01-31T20:20:02.954Z,100603.37
2019-01-31T20:22:32.025Z,100600.97
2019-01-31T20:25:01.088Z,100610.47
2019-01-31T20:27:35.527Z,100602.49
2019-01-31T20:30:02.872Z,100607.73
2019-01-31T20:32:31.976Z,100603.30
2019-01-31T20:35:01.116Z,100599.30
2019-01-31T20:37:30.197Z,100596.82
2019-01-31T20:39:59.285Z,100602.93
2019-01-31T20:42:28.344Z,100603.52
2019-01-31T20:44:57.403Z,100601.55
2019-01-31T20:47:26.498Z,100598.34
2019-01-31T20:49:55.566Z,100597.63
2019-01-31T20:52:24.894Z,100594.14
2019-01-31T20:54:56.885Z,100600.31
2019-01-31T20:57:25.741Z,100597.08
2019-01-31T20:59:54.814Z,100597.23
2019-01-31T21:02:23.922Z,100603.95
2019-01-31T21:04:52.998Z,100609.97
2019-01-31T21:07:22.065Z,100624.41
2019-01-31T21:09:51.168Z,100623.13
2019-01-31T21:12:20.241Z,100628.38
2019-01-31T21:14:49.353Z,100630.56
2019-01-31T21:17:18.559Z,100634.16
2019-01-31T21:19:48.113Z,100624.93
2019-01-31T21:22:17.089Z,100621.02
2019-01-31T21:24:46.297Z,100617.95
2019-01-31T21:27:15.372Z,100615.42
2019-01-31T21:29:44.794Z,100619.66
2019-01-31T21:32:13.812Z,100615.47
2019-01-31T21:34:42.872Z,100606.80
2019-01-31T21:37:12.727Z,100612.53
2019-01-31T21:39:41.940Z,100612.70
2019-01-31T21:42:11.022Z,100613.61
2019-01-31T21:44:40.088Z,100615.45
2019-01-31T21:47:09.198Z,100621.31
2019-01-31T21:49:38.263Z,100616.11
2019-01-31T21:52:07.309Z,100616.16
2019-01-31T21:54:36.419Z,100607.66
2019-01-31T21:57:05.480Z,100613.81
2019-01-31T21:59:34.537Z,100605.33
2019-01-31T22:02:03.670Z,100609.73
2019-01-31T22:04:32.738Z,100605.28
2019-01-31T22:07:05.552Z,100610.98
2019-01-31T22:09:34.628Z,100610.56
2019-01-31T22:12:03.684Z,100607.48
2019-01-31T22:14:32.774Z,100605.64
2019-01-31T22:17:01.861Z,100612.79
2019-01-31T22:19:30.921Z,100606.27
2019-01-31T22:22:00.029Z,100612.16
2019-01-31T22:24:29.090Z,100604.25
2019-01-31T22:26:58.175Z,100603.53
2019-01-31T22:29:27.266Z,100604.45
2019-01-31T22:31:56.328Z,100600.88
2019-01-31T22:34:25.404Z,100595.19
2019-01-31T22:36:54.494Z,100595.55
2019-01-31T22:39:23.567Z,100593.83
2019-01-31T22:41:52.630Z,100596.66
2019-01-31T22:44:21.813Z,100598.19
2019-01-31T22:46:50.882Z,100597.12
2019-01-31T22:49:19.937Z,100593.53
2019-01-31T22:51:49.119Z,100595.59
2019-01-31T22:54:18.177Z,100596.27
2019-01-31T22:56:59.011Z,100590.57
2019-01-31T22:59:28.003Z,100589.37
2019-01-31T23:01:57.060Z,100587.73
2019-01-31T23:04:26.189Z,100592.08
2019-01-31T23:06:55.254Z,100586.00
2019-01-31T23:09:24.299Z,100587.14
2019-01-31T23:11:53.671Z,100585.95
2019-01-31T23:14:22.660Z,100585.03
2019-01-31T23:16:51.725Z,100587.56
2019-01-31T23:19:20.809Z,100579.11
2019-01-31T23:21:49.859Z,100582.38
2019-01-31T23:24:19.346Z,100574.08
2019-01-31T23:26:48.371Z,100579.03
2019-01-31T23:29:17.432Z,100576.37
2019-01-31T23:31:46.487Z,100578.17
2019-01-31T23:34:15.652Z,100582.52
2019-01-31T23:36:44.739Z,100577.31
2019-01-31T23:39:14.658Z,100577.42
2019-01-31T23:41:43.745Z,100570.84
2019-01-31T23:44:12.798Z,100578.22
2019-01-31T23:46:41.849Z,100570.50
2019-01-31T23:49:11.127Z,100561.81
2019-01-31T23:51:40.193Z,100560.71
2019-01-31T23:54:09.275Z,100559.33
2019-01-31T23:56:38.375Z,100552.28
2019-01-31T23:59:07.437Z,100552.83
